createdAt,value
2022-08-31T00:01:53.365Z,96132.91
2022-08-31T00:04:20.603Z,96140.31
2022-08-31T00:06:51.405Z,96138.75
2022-08-31T00:09:21.553Z,96136.69
2022-08-31T00:11:48.697Z,96140.72
2022-08-31T00:14:16.370Z,96139.28
2022-08-31T00:16:45.557Z,96147.41
2022-08-31T00:19:15.109Z,96144.88
2022-08-31T00:21:42.792Z,96145.53
2022-08-31T00:24:14.227Z,96145.22
2022-08-31T00:26:42.267Z,96146.97
2022-08-31T00:29:10.430Z,96144.53
2022-08-31T00:31:37.822Z,96148.09
2022-08-31T00:34:05.325Z,96148.38
2022-08-31T00:36:32.635Z,96150.03
2022-08-31T00:38:59.992Z,96157.88
2022-08-31T00:41:29.433Z,96164.88
2022-08-31T00:43:59.598Z,96166.13
2022-08-31T00:46:30.249Z,96172.66
2022-08-31T00:49:11.206Z,96177.25
2022-08-31T00:51:51.947Z,96180.47
2022-08-31T00:54:24.965Z,96189.31
2022-08-31T00:56:52.399Z,96191.28
2022-08-31T00:59:20.594Z,96191.16
2022-08-31T01:01:47.826Z,96191.59
2022-08-31T01:04:16.914Z,96189.06
2022-08-31T01:06:44.903Z,96191.44
2022-08-31T01:09:13.409Z,96177.22
2022-08-31T01:11:42.214Z,96181.69
2022-08-31T01:14:10.847Z,96184.00
2022-08-31T01:16:43.568Z,96185.41
2022-08-31T01:19:36.931Z,96196.88
2022-08-31T01:22:18.910Z,96195.78
2022-08-31T01:24:48.581Z,96193.16
2022-08-31T01:27:19.820Z,96188.63
2022-08-31T01:29:47.008Z,96199.78
2022-08-31T01:32:14.553Z,96201.94
2022-08-31T01:34:41.870Z,96199.31
2022-08-31T01:37:09.277Z,96197.00
2022-08-31T01:39:36.431Z,96202.81
2022-08-31T01:42:04.599Z,96189.94
2022-08-31T01:44:31.782Z,96195.97
2022-08-31T01:46:59.313Z,96189.63
2022-08-31T01:49:27.901Z,96196.22
2022-08-31T01:51:55.557Z,96198.78
2022-08-31T01:54:24.983Z,96202.53
2022-08-31T01:56:52.239Z,96203.09
2022-08-31T01:59:28.431Z,96201.63
2022-08-31T02:02:14.070Z,96212.25
2022-08-31T02:04:41.873Z,96213.78
2022-08-31T02:07:08.977Z,96207.22
2022-08-31T02:09:36.163Z,96214.56
2022-08-31T02:12:03.745Z,96210.00
2022-08-31T02:14:30.890Z,96210.00
2022-08-31T02:16:58.185Z,96214.03
2022-08-31T02:19:25.401Z,96211.31
2022-08-31T02:21:55.930Z,96211.31
2022-08-31T02:24:23.050Z,96206.66
2022-08-31T02:26:53.686Z,96208.31
2022-08-31T02:29:21.789Z,96214.94
2022-08-31T02:31:49.106Z,96218.28
2022-08-31T02:34:17.273Z,96219.19
2022-08-31T02:36:45.327Z,96213.63
2022-08-31T02:39:14.933Z,96216.06
2022-08-31T02:41:42.125Z,96221.22
2022-08-31T02:44:09.531Z,96212.63
2022-08-31T02:46:36.889Z,96207.78
2022-08-31T02:49:22.456Z,96213.16
2022-08-31T02:51:54.123Z,96215.47
2022-08-31T02:54:22.344Z,96207.22
2022-08-31T02:56:49.495Z,96210.03
2022-08-31T02:59:20.626Z,96207.81
2022-08-31T03:01:48.655Z,96208.72
2022-08-31T03:04:17.366Z,96204.38
2022-08-31T03:06:47.735Z,96198.66
2022-08-31T03:09:16.004Z,96200.81
2022-08-31T03:11:43.740Z,96208.16
2022-08-31T03:14:11.296Z,96204.13
2022-08-31T03:16:40.454Z,96206.41
2022-08-31T03:19:09.278Z,96196.84
2022-08-31T03:21:36.695Z,96202.13
2022-08-31T03:24:04.284Z,96205.72
2022-08-31T03:26:31.503Z,96192.63
2022-08-31T03:28:58.629Z,96206.28
2022-08-31T03:31:51.896Z,96194.81
2022-08-31T03:34:19.447Z,96192.72
2022-08-31T03:36:46.821Z,96198.97
2022-08-31T03:39:14.726Z,96193.25
2022-08-31T03:41:41.869Z,96195.06
2022-08-31T03:44:09.701Z,96198.69
2022-08-31T03:46:41.210Z,96194.78
2022-08-31T03:49:08.368Z,96196.69
2022-08-31T03:51:35.713Z,96186.81
2022-08-31T03:54:04.200Z,96186.00
2022-08-31T03:56:33.232Z,96187.19
2022-08-31T03:59:00.419Z,96187.66
2022-08-31T04:01:50.483Z,96185.84
2022-08-31T04:04:36.354Z,96182.56
2022-08-31T04:07:43.176Z,96183.47
2022-08-31T04:10:29.105Z,96190.47
2022-08-31T04:13:14.820Z,96189.72
2022-08-31T04:16:10.035Z,96190.78
2022-08-31T04:19:11.218Z,96192.91
2022-08-31T04:21:47.537Z,96191.19
2022-08-31T04:24:14.748Z,96204.22
2022-08-31T04:26:42.429Z,96205.00
2022-08-31T04:29:13.458Z,96204.22
2022-08-31T04:31:42.199Z,96201.25
2022-08-31T04:34:09.481Z,96204.41
2022-08-31T04:36:37.414Z,96198.19
2022-08-31T04:39:05.773Z,96205.88
2022-08-31T04:41:36.643Z,96205.75
2022-08-31T04:44:04.518Z,96206.22
2022-08-31T04:46:33.234Z,96206.22
2022-08-31T04:49:00.396Z,96214.31
2022-08-31T04:51:35.436Z,96212.66
2022-08-31T04:54:05.961Z,96216.81
2022-08-31T04:56:35.116Z,96212.97
2022-08-31T04:59:04.790Z,96225.56
2022-08-31T05:01:42.766Z,96223.81
2022-08-31T05:04:48.927Z,96228.19
2022-08-31T05:07:16.788Z,96230.44
2022-08-31T05:09:44.405Z,96235.47
2022-08-31T05:12:11.611Z,96234.25
2022-08-31T05:14:39.297Z,96234.91
2022-08-31T05:17:17.048Z,96232.22
2022-08-31T05:19:44.578Z,96228.72
2022-08-31T05:22:14.391Z,96241.25
2022-08-31T05:24:44.087Z,96243.34
2022-08-31T05:27:12.859Z,96248.06
2022-08-31T05:29:41.047Z,96242.81
2022-08-31T05:32:28.386Z,96242.31
2022-08-31T05:34:58.753Z,96245.09
2022-08-31T05:37:27.017Z,96243.00
2022-08-31T05:39:54.517Z,96249.06
2022-08-31T05:42:21.795Z,96256.22
2022-08-31T05:44:49.873Z,96251.00
2022-08-31T05:47:17.632Z,96262.84
2022-08-31T05:49:44.985Z,96261.78
2022-08-31T05:52:16.346Z,96271.69
2022-08-31T05:54:44.025Z,96268.03
2022-08-31T05:57:11.605Z,96273.78
2022-08-31T05:59:39.753Z,96277.19
2022-08-31T06:02:10.424Z,96283.97
2022-08-31T06:04:38.441Z,96270.94
2022-08-31T06:07:05.949Z,96275.78
2022-08-31T06:09:43.271Z,96262.75
2022-08-31T06:12:11.813Z,96270.97
2022-08-31T06:14:44.775Z,96279.28
2022-08-31T06:17:13.305Z,96277.94
2022-08-31T06:19:40.416Z,96274.47
2022-08-31T06:22:07.699Z,96280.41
2022-08-31T06:24:34.953Z,96285.84
2022-08-31T06:27:03.919Z,96286.84
2022-08-31T06:29:33.271Z,96288.41
2022-08-31T06:32:06.074Z,96283.66
2022-08-31T06:34:34.555Z,96283.34
2022-08-31T06:37:02.318Z,96291.41
2022-08-31T06:39:38.479Z,96298.56
2022-08-31T06:42:14.842Z,96300.41
2022-08-31T06:45:01.812Z,96301.88
2022-08-31T06:47:38.762Z,96305.59
2022-08-31T06:50:07.767Z,96303.69
2022-08-31T06:52:38.842Z,96306.78
2022-08-31T06:55:26.585Z,96306.09
2022-08-31T06:58:12.162Z,96307.81
2022-08-31T07:00:59.214Z,96313.88
2022-08-31T07:03:34.521Z,96311.34
2022-08-31T07:06:09.276Z,96316.38
2022-08-31T07:08:39.058Z,96320.72
2022-08-31T07:11:21.012Z,96326.47
2022-08-31T07:13:48.712Z,96323.34
2022-08-31T07:16:18.619Z,96326.47
2022-08-31T07:18:47.120Z,96337.09
2022-08-31T07:21:20.906Z,96345.06
2022-08-31T07:23:50.081Z,96336.66
2022-08-31T07:26:43.882Z,96343.00
2022-08-31T07:29:14.966Z,96341.97
2022-08-31T07:31:46.117Z,96340.00
2022-08-31T07:34:18.582Z,96336.53
2022-08-31T07:37:17.005Z,96340.97
2022-08-31T07:40:07.421Z,96339.53
2022-08-31T07:42:39.355Z,96342.31
2022-08-31T07:45:12.069Z,96338.25
2022-08-31T07:47:46.908Z,96341.97
2022-08-31T07:50:17.647Z,96336.84
2022-08-31T07:52:58.689Z,96334.63
2022-08-31T07:55:45.642Z,96331.47
2022-08-31T07:58:34.897Z,96329.13
2022-08-31T08:01:04.075Z,96328.34
2022-08-31T08:03:32.700Z,96330.59
2022-08-31T08:06:18.749Z,96332.38
2022-08-31T08:09:24.376Z,96335.72
2022-08-31T08:12:09.185Z,96333.16
2022-08-31T08:14:43.945Z,96329.31
2022-08-31T08:17:20.622Z,96331.91
2022-08-31T08:20:05.089Z,96334.19
2022-08-31T08:22:51.837Z,96327.28
2022-08-31T08:25:34.994Z,96329.50
2022-08-31T08:28:45.443Z,96332.63
2022-08-31T08:31:16.457Z,96333.97
2022-08-31T08:33:44.979Z,96337.81
2022-08-31T08:36:12.860Z,96342.75
2022-08-31T08:38:43.822Z,96349.59
2022-08-31T08:41:15.420Z,96350.56
2022-08-31T08:43:47.883Z,96349.50
2022-08-31T08:47:28.514Z,96354.44
2022-08-31T08:49:28.527Z,96347.78
2022-08-31T08:52:03.220Z,96346.66
2022-08-31T08:54:38.782Z,96342.34
2022-08-31T08:57:16.741Z,96341.72
2022-08-31T08:59:47.821Z,96338.31
2022-08-31T09:02:23.179Z,96339.94
2022-08-31T09:05:21.722Z,96346.63
2022-08-31T09:08:23.450Z,96350.69
2022-08-31T09:11:09.530Z,96352.63
2022-08-31T09:14:08.102Z,96356.59
2022-08-31T09:16:44.675Z,96366.63
2022-08-31T09:19:17.952Z,96358.25
2022-08-31T09:21:50.144Z,96360.38
2022-08-31T09:24:21.839Z,96365.88
2022-08-31T09:27:17.677Z,96381.06
2022-08-31T09:29:53.173Z,96382.03
2022-08-31T09:32:27.357Z,96384.28
2022-08-31T09:35:05.478Z,96392.66
2022-08-31T09:37:40.342Z,96393.56
2022-08-31T09:40:16.202Z,96395.31
2022-08-31T09:43:00.743Z,96391.63
2022-08-31T09:45:38.737Z,96398.50
2022-08-31T09:48:09.435Z,96396.94
2022-08-31T09:50:46.217Z,96401.25
2022-08-31T09:53:44.026Z,96397.16
2022-08-31T09:56:15.805Z,96400.34
2022-08-31T09:58:45.818Z,96399.53
2022-08-31T10:01:18.869Z,96402.16
2022-08-31T10:03:47.798Z,96402.41
2022-08-31T10:06:55.235Z,96404.03
2022-08-31T10:09:37.556Z,96399.53
2022-08-31T10:12:10.144Z,96401.75
2022-08-31T10:14:46.115Z,96396.81
2022-08-31T10:17:26.115Z,96402.53
2022-08-31T10:20:05.824Z,96405.34
2022-08-31T10:22:44.985Z,96398.06
2022-08-31T10:25:24.070Z,96398.25
2022-08-31T10:27:58.108Z,96398.00
2022-08-31T10:30:41.017Z,96399.22
2022-08-31T10:33:11.331Z,96397.06
2022-08-31T10:35:49.341Z,96394.72
2022-08-31T10:38:26.360Z,96394.34
2022-08-31T10:41:17.498Z,96394.25
2022-08-31T10:43:48.986Z,96397.81
2022-08-31T10:46:16.654Z,96398.78
2022-08-31T10:48:47.245Z,96399.19
2022-08-31T10:51:27.849Z,96395.84
2022-08-31T10:54:06.711Z,96397.66
2022-08-31T10:56:59.250Z,96391.66
2022-08-31T11:00:00.986Z,96397.06
2022-08-31T11:02:44.203Z,96400.03
2022-08-31T11:05:33.214Z,96399.34
2022-08-31T11:08:19.665Z,96398.41
2022-08-31T11:10:53.876Z,96395.97
2022-08-31T11:13:53.775Z,96394.09
2022-08-31T11:16:51.079Z,96398.84
2022-08-31T11:19:55.312Z,96398.25
2022-08-31T11:22:50.200Z,96398.97
2022-08-31T11:25:24.920Z,96392.47
2022-08-31T11:28:33.915Z,96388.16
2022-08-31T11:31:14.637Z,96384.66
2022-08-31T11:34:12.242Z,96387.69
2022-08-31T11:36:50.274Z,96375.34
2022-08-31T11:39:20.304Z,96380.19
2022-08-31T11:41:50.837Z,96373.53
2022-08-31T11:44:30.270Z,96358.66
2022-08-31T11:47:07.520Z,96368.84
2022-08-31T11:49:38.424Z,96364.91
2022-08-31T11:52:12.009Z,96357.00
2022-08-31T11:54:41.994Z,96353.41
2022-08-31T11:57:15.976Z,96358.22
2022-08-31T11:59:48.094Z,96349.81
2022-08-31T12:02:21.546Z,96354.16
2022-08-31T12:04:52.084Z,96350.88
2022-08-31T12:07:44.598Z,96352.44
2022-08-31T12:10:36.500Z,96341.09
2022-08-31T12:13:27.895Z,96337.16
2022-08-31T12:16:06.768Z,96335.00
2022-08-31T12:18:39.658Z,96339.34
2022-08-31T12:21:39.619Z,96338.41
2022-08-31T12:24:25.428Z,96328.75
2022-08-31T12:27:01.330Z,96333.91
2022-08-31T12:29:35.339Z,96331.25
2022-08-31T12:32:29.714Z,96331.91
2022-08-31T12:35:11.809Z,96330.47
2022-08-31T12:37:39.930Z,96333.41
2022-08-31T12:40:14.810Z,96322.56
2022-08-31T12:43:09.540Z,96316.91
2022-08-31T12:46:04.782Z,96321.41
2022-08-31T12:49:07.620Z,96317.22
2022-08-31T12:51:59.638Z,96311.91
2022-08-31T12:54:41.546Z,96307.91
2022-08-31T12:57:43.685Z,96301.94
2022-08-31T13:00:43.413Z,96318.78
2022-08-31T13:03:31.375Z,96303.66
2022-08-31T13:06:03.061Z,96293.69
2022-08-31T13:08:44.244Z,96298.91
2022-08-31T13:11:25.811Z,96290.41
2022-08-31T13:14:13.415Z,96287.59
2022-08-31T13:16:48.738Z,96285.34
2022-08-31T13:19:25.484Z,96280.16
2022-08-31T13:21:56.494Z,96275.72
2022-08-31T13:24:30.942Z,96270.56
2022-08-31T13:27:06.299Z,96273.31
2022-08-31T13:29:41.023Z,96267.31
2022-08-31T13:32:09.385Z,96267.91
2022-08-31T13:34:41.771Z,96259.44
2022-08-31T13:37:16.556Z,96256.16
2022-08-31T13:39:46.223Z,96254.59
2022-08-31T13:42:27.912Z,96252.72
2022-08-31T13:45:00.795Z,96261.28
2022-08-31T13:47:48.834Z,96262.84
2022-08-31T13:50:30.774Z,96263.44
2022-08-31T13:53:25.264Z,96262.84
2022-08-31T13:55:48.820Z,96248.75
2022-08-31T13:58:45.194Z,96254.34
2022-08-31T14:01:26.257Z,96263.22
2022-08-31T14:03:59.468Z,96256.09
2022-08-31T14:06:37.834Z,96250.13
2022-08-31T14:09:14.648Z,96255.19
2022-08-31T14:11:52.792Z,96252.91
2022-08-31T14:14:29.861Z,96253.97
2022-08-31T14:17:03.417Z,96249.00
2022-08-31T14:19:33.248Z,96259.44
2022-08-31T14:22:26.380Z,96259.47
2022-08-31T14:24:56.580Z,96256.72
2022-08-31T14:27:24.154Z,96251.56
2022-08-31T14:29:52.867Z,96253.13
2022-08-31T14:32:21.965Z,96242.28
2022-08-31T14:34:50.959Z,96254.09
2022-08-31T14:37:28.709Z,96250.44
2022-08-31T14:40:06.988Z,96249.44
2022-08-31T14:42:38.192Z,96246.63
2022-08-31T14:45:18.915Z,96246.63
2022-08-31T14:47:50.725Z,96245.03
2022-08-31T14:50:23.290Z,96244.31
2022-08-31T14:52:59.514Z,96241.97
2022-08-31T14:55:29.947Z,96243.03
2022-08-31T14:58:05.043Z,96248.94
2022-08-31T15:00:39.897Z,96249.75
2022-08-31T15:03:08.127Z,96247.16
2022-08-31T15:05:39.135Z,96259.38
2022-08-31T15:08:06.580Z,96254.91
2022-08-31T15:10:34.102Z,96247.06
2022-08-31T15:13:05.512Z,96255.03
2022-08-31T15:15:33.551Z,96258.28
2022-08-31T15:18:04.261Z,96266.84
2022-08-31T15:20:36.149Z,96256.56
2022-08-31T15:23:03.962Z,96260.81
2022-08-31T15:25:31.056Z,96265.28
2022-08-31T15:27:58.870Z,96269.53
2022-08-31T15:30:26.062Z,96255.75
2022-08-31T15:32:58.796Z,96262.25
2022-08-31T15:35:30.111Z,96261.69
2022-08-31T15:38:01.169Z,96257.56
2022-08-31T15:40:38.884Z,96248.53
2022-08-31T15:43:12.425Z,96246.03
2022-08-31T15:45:39.572Z,96254.63
2022-08-31T15:48:25.327Z,96244.88
2022-08-31T15:54:00.860Z,96241.56
2022-08-31T15:56:35.418Z,96255.28
2022-08-31T15:59:04.194Z,96243.94
2022-08-31T16:01:31.252Z,96250.69
2022-08-31T16:03:58.458Z,96233.53
2022-08-31T16:06:31.125Z,96234.78
2022-08-31T16:08:59.739Z,96241.81
2022-08-31T16:11:30.953Z,96234.91
2022-08-31T16:14:01.271Z,96244.97
2022-08-31T16:16:35.218Z,96243.19
2022-08-31T16:19:04.381Z,96237.78
2022-08-31T16:21:35.598Z,96248.66
2022-08-31T16:24:08.067Z,96235.91
2022-08-31T16:26:38.820Z,96242.91
2022-08-31T16:29:08.600Z,96243.13
2022-08-31T16:31:35.825Z,96234.34
2022-08-31T16:34:03.017Z,96236.13
2022-08-31T16:36:30.362Z,96239.22
2022-08-31T16:38:59.138Z,96239.63
2022-08-31T16:41:30.436Z,96235.13
2022-08-31T16:44:19.096Z,96242.84
2022-08-31T16:46:47.406Z,96236.31
2022-08-31T16:49:33.399Z,96243.06
2022-08-31T16:52:03.178Z,96248.94
2022-08-31T16:54:30.550Z,96243.47
2022-08-31T16:56:57.880Z,96243.69
2022-08-31T16:59:27.731Z,96246.03
2022-08-31T17:01:55.360Z,96255.16
2022-08-31T17:04:50.516Z,96249.16
2022-08-31T17:07:14.696Z,96259.00
2022-08-31T17:09:42.474Z,96249.19
2022-08-31T17:12:14.143Z,96262.53
2022-08-31T17:14:46.841Z,96261.94
2022-08-31T17:17:20.077Z,96261.31
2022-08-31T17:19:47.662Z,96262.22
2022-08-31T17:22:24.362Z,96265.81
2022-08-31T17:24:57.409Z,96258.31
2022-08-31T17:27:26.629Z,96258.47
2022-08-31T17:29:55.918Z,96255.84
2022-08-31T17:32:26.072Z,96269.25
2022-08-31T17:34:55.001Z,96269.16
2022-08-31T17:37:30.291Z,96271.66
2022-08-31T17:39:59.289Z,96280.31
2022-08-31T17:42:27.866Z,96275.44
2022-08-31T17:44:56.549Z,96274.44
2022-08-31T17:47:25.293Z,96285.53
2022-08-31T17:49:54.042Z,96289.59
2022-08-31T17:52:21.742Z,96288.03
2022-08-31T17:54:50.775Z,96299.03
2022-08-31T17:57:19.024Z,96296.13
2022-08-31T17:59:50.996Z,96290.66
2022-08-31T18:02:32.413Z,96300.16
2022-08-31T18:05:01.273Z,96303.16
2022-08-31T18:07:28.508Z,96286.03
2022-08-31T18:09:56.145Z,96297.84
2022-08-31T18:12:25.389Z,96298.78
2022-08-31T18:14:53.745Z,96299.75
2022-08-31T18:17:22.258Z,96300.88
2022-08-31T18:19:49.693Z,96305.34
2022-08-31T18:22:18.118Z,96303.66
2022-08-31T18:24:45.347Z,96308.84
2022-08-31T18:27:15.107Z,96304.16
2022-08-31T18:29:44.134Z,96302.25
2022-08-31T18:32:11.981Z,96308.16
2022-08-31T18:34:44.543Z,96320.94
2022-08-31T18:37:12.887Z,96317.66
2022-08-31T18:40:00.459Z,96317.84
2022-08-31T18:42:47.658Z,96331.97
2022-08-31T18:45:20.842Z,96329.75
2022-08-31T18:48:20.938Z,96331.19
2022-08-31T18:50:45.523Z,96326.63
2022-08-31T18:53:29.404Z,96326.47
2022-08-31T18:56:04.233Z,96324.94
2022-08-31T18:58:31.548Z,96332.72
2022-08-31T19:00:59.104Z,96327.63
2022-08-31T19:03:27.855Z,96330.56
2022-08-31T19:05:56.390Z,96316.97
2022-08-31T19:08:23.870Z,96329.66
2022-08-31T19:10:51.268Z,96317.84
2022-08-31T19:13:18.577Z,96328.34
2022-08-31T19:15:45.952Z,96327.59
2022-08-31T19:18:13.201Z,96316.53
2022-08-31T19:20:41.182Z,96321.88
2022-08-31T19:23:08.423Z,96318.09
2022-08-31T19:25:42.267Z,96326.91
2022-08-31T19:28:09.802Z,96319.53
2022-08-31T19:30:38.002Z,96329.03
2022-08-31T19:33:09.633Z,96324.03
2022-08-31T19:35:38.275Z,96322.78
2022-08-31T19:38:05.836Z,96321.78
2022-08-31T19:40:39.214Z,96326.28
2022-08-31T19:45:54.188Z,96322.56
2022-08-31T19:48:23.274Z,96326.81
2022-08-31T19:50:51.594Z,96319.09
2022-08-31T19:53:22.398Z,96322.38
2022-08-31T19:55:52.451Z,96324.00
2022-08-31T19:58:26.170Z,96331.44
2022-08-31T20:01:00.642Z,96326.28
2022-08-31T20:03:31.192Z,96325.03
2022-08-31T20:05:59.774Z,96319.91
2022-08-31T20:08:26.933Z,96322.56
2022-08-31T20:10:54.051Z,96326.19
2022-08-31T20:13:24.462Z,96310.56
2022-08-31T20:15:52.881Z,96313.75
2022-08-31T20:18:20.720Z,96313.78
2022-08-31T20:20:50.780Z,96314.84
2022-08-31T20:23:21.133Z,96311.28
2022-08-31T20:25:50.366Z,96306.06
2022-08-31T20:28:23.586Z,96303.59
2022-08-31T20:30:51.370Z,96300.81
2022-08-31T20:33:18.805Z,96298.78
2022-08-31T20:35:47.586Z,96288.81
2022-08-31T20:38:17.190Z,96294.97
2022-08-31T20:40:52.082Z,96294.09
2022-08-31T20:43:21.299Z,96294.34
2022-08-31T20:45:48.996Z,96292.34
2022-08-31T20:48:34.442Z,96286.53
2022-08-31T20:51:16.143Z,96291.00
2022-08-31T20:53:44.359Z,96296.84
2022-08-31T20:56:17.517Z,96294.47
2022-08-31T20:58:46.296Z,96297.25
2022-08-31T21:01:15.849Z,96294.47
2022-08-31T21:03:42.946Z,96307.75
2022-08-31T21:06:12.130Z,96289.81
2022-08-31T21:08:40.840Z,96298.13
2022-08-31T21:11:16.468Z,96296.03
2022-08-31T21:13:45.515Z,96292.50
2022-08-31T21:16:13.878Z,96301.97
2022-08-31T21:18:41.067Z,96302.81
2022-08-31T21:21:10.473Z,96299.00
2022-08-31T21:23:38.404Z,96291.31
2022-08-31T21:26:08.466Z,96286.84
2022-08-31T21:28:39.409Z,96293.16
2022-08-31T21:31:18.391Z,96289.22
2022-08-31T21:33:58.932Z,96295.63
2022-08-31T21:36:26.950Z,96286.22
2022-08-31T21:38:56.163Z,96289.22
2022-08-31T21:41:26.540Z,96289.09
2022-08-31T21:43:55.792Z,96286.84
2022-08-31T21:46:25.898Z,96291.63
2022-08-31T21:48:55.966Z,96286.84
2022-08-31T21:51:26.624Z,96284.13
2022-08-31T21:53:56.980Z,96287.31
2022-08-31T21:56:26.718Z,96285.16
2022-08-31T21:58:55.462Z,96277.44
2022-08-31T22:01:24.443Z,96288.19
2022-08-31T22:03:57.603Z,96287.81
2022-08-31T22:06:30.985Z,96282.06
2022-08-31T22:09:01.667Z,96281.69
2022-08-31T22:11:34.530Z,96290.38
2022-08-31T22:14:01.809Z,96285.00
2022-08-31T22:16:29.127Z,96285.00
2022-08-31T22:19:01.184Z,96278.69
2022-08-31T22:21:34.064Z,96287.75
2022-08-31T22:24:05.755Z,96276.03
2022-08-31T22:26:36.863Z,96287.25
2022-08-31T22:29:06.536Z,96274.91
2022-08-31T22:31:38.390Z,96282.41
2022-08-31T22:34:08.136Z,96287.88
2022-08-31T22:36:35.700Z,96281.38
2022-08-31T22:39:07.453Z,96285.59
2022-08-31T22:41:37.252Z,96286.69
2022-08-31T22:44:06.332Z,96282.94
2022-08-31T22:46:34.680Z,96280.38
2022-08-31T22:49:02.078Z,96278.97
2022-08-31T22:51:29.697Z,96282.53
2022-08-31T22:53:56.802Z,96276.03
2022-08-31T22:56:26.986Z,96277.19
2022-08-31T22:58:55.991Z,96283.47
2022-08-31T23:01:29.153Z,96282.22
2022-08-31T23:03:58.890Z,96286.00
2022-08-31T23:06:29.827Z,96275.19
2022-08-31T23:08:58.307Z,96271.50
2022-08-31T23:11:26.688Z,96266.34
2022-08-31T23:13:55.616Z,96274.34
2022-08-31T23:16:33.322Z,96279.75
2022-08-31T23:19:08.460Z,96275.56
2022-08-31T23:21:36.184Z,96265.44
2022-08-31T23:24:04.577Z,96269.00
2022-08-31T23:26:31.734Z,96264.16
2022-08-31T23:28:59.911Z,96263.78
2022-08-31T23:31:27.901Z,96260.75
2022-08-31T23:33:55.073Z,96267.22
2022-08-31T23:36:26.072Z,96266.56
2022-08-31T23:38:55.029Z,96263.59
2022-08-31T23:41:26.757Z,96266.84
2022-08-31T23:43:53.989Z,96268.06
2022-08-31T23:46:23.685Z,96258.78
2022-08-31T23:48:53.151Z,96269.63
2022-08-31T23:51:21.669Z,96262.63
2022-08-31T23:53:54.004Z,96266.00
2022-08-31T23:56:27.462Z,96257.94
2022-08-31T23:58:54.588Z,96265.75
